Terminal Aerodrome Forecast
Issued by NWS

Current Version | Previous Version | Text Only | Print | Product List | Glossary On
Versions: 1 2 3 4 5 6 7 8 9 10 11 12 13 14 15 16 17 18
000
FTUS41 KGYX 252330
TAFLEB
TAF
KLEB 252330Z 2600/2624 34006KT P6SM BKN250
     FM261200 VRB03KT P6SM SCT120 OVC200
     FM262000 04004KT P6SM SCT050 BKN100=

USA.gov is the U.S. government's official web portal to all federal, state and local government web resources and services.